Terminal Aerodrome Forecast
Issued by NWS Sterling, VA

Current Version | Previous Version | Graphics & Text | Print | Product List | Glossary On
Versions: 1 2 3 4 5 6 7 8 9 10 11 12 13 14
000
FTUS41 KLWX 241737
TAFMRB
TAF
KMRB 241737Z 2418/2518 VRB03KT P6SM FEW060 FEW200
     FM250000 14004KT P6SM SCT060 BKN080
     FM250800 VRB03KT P6SM SCT130
     FM251500 20007KT P6SM FEW250=

USA.gov is the U.S. government's official web portal to all federal, state and local government web resources and services.